地図

経路データ

SID SEASON NUMBER BASIN SUBBASIN NAME ISO_TIME NATURE LAT LON WMO_WIND WMO_PRES WMO_AGENCY TRACK_TYPE DIST2LAND LANDFALL IFLAG USA_AGENCY USA_ATCF_ID USA_LAT USA_LON USA_RECORD USA_STATUS USA_WIND USA_PRES USA_SSHS USA_R34_NE USA_R34_SE USA_R34_SW USA_R34_NW USA_R50_NE USA_R50_SE USA_R50_SW USA_R50_NW USA_R64_NE USA_R64_SE USA_R64_SW USA_R64_NW USA_POCI USA_ROCI USA_RMW USA_EYE TOKYO_LAT TOKYO_LON TOKYO_GRADE TOKYO_WIND TOKYO_PRES TOKYO_R50_DIR TOKYO_R50_LONG TOKYO_R50_SHORT TOKYO_R30_DIR TOKYO_R30_LONG TOKYO_R30_SHORT TOKYO_LAND CMA_LAT CMA_LON CMA_CAT CMA_WIND CMA_PRES HKO_LAT HKO_LON HKO_CAT HKO_WIND HKO_PRES NEWDELHI_LAT NEWDELHI_LON NEWDELHI_GRADE NEWDELHI_WIND NEWDELHI_PRES NEWDELHI_CI NEWDELHI_DP NEWDELHI_POCI REUNION_LAT REUNION_LON REUNION_TYPE REUNION_WIND REUNION_PRES REUNION_TNUM REUNION_CI REUNION_RMW REUNION_R34_NE REUNION_R34_SE REUNION_R34_SW REUNION_R34_NW REUNION_R50_NE REUNION_R50_SE REUNION_R50_SW REUNION_R50_NW REUNION_R64_NE REUNION_R64_SE REUNION_R64_SW REUNION_R64_NW BOM_LAT BOM_LON BOM_TYPE BOM_WIND BOM_PRES BOM_TNUM BOM_CI BOM_RMW BOM_R34_NE BOM_R34_SE BOM_R34_SW BOM_R34_NW BOM_R50_NE BOM_R50_SE BOM_R50_SW BOM_R50_NW BOM_R64_NE BOM_R64_SE BOM_R64_SW BOM_R64_NW BOM_ROCI BOM_POCI BOM_EYE BOM_POS_METHOD BOM_PRES_METHOD NADI_LAT NADI_LON NADI_CAT NADI_WIND NADI_PRES WELLINGTON_LAT WELLINGTON_LON WELLINGTON_WIND WELLINGTON_PRES DS824_LAT DS824_LON DS824_STAGE DS824_WIND DS824_PRES TD9636_LAT TD9636_LON TD9636_STAGE TD9636_WIND TD9636_PRES TD9635_LAT TD9635_LON TD9635_WIND TD9635_PRES TD9635_ROCI NEUMANN_LAT NEUMANN_LON NEUMANN_CLASS NEUMANN_WIND NEUMANN_PRES MLC_LAT MLC_LON MLC_CLASS MLC_WIND MLC_PRES USA_GUST BOM_GUST BOM_GUST_PER REUNION_GUST REUNION_GUST_PER USA_SEAHGT USA_SEARAD_NE USA_SEARAD_SE USA_SEARAD_SW USA_SEARAD_NW STORM_SPEED STORM_DIR
1996042S13139 1996 10 SP EA DENNIS 1996-02-10 18:00:00 TS -13.3000 139.200 main 254 254 O___________O_ jtwc_sh SH131996 -13.3000 139.200 20 -1 -13.3000 139.200 TC 20 1 80
1996042S13139 1996 10 SP EA DENNIS 1996-02-10 21:00:00 TS -13.2900 139.250 main 247 247 P___________P_ SH131996 -13.2900 139.250 20 -1 -13.2900 139.250 TC 20 1 90
1996042S13139 1996 10 SP EA DENNIS 1996-02-11 00:00:00 TS -13.3000 139.300 main 247 247 O___________O_ jtwc_sh SH131996 -13.3000 139.300 20 -1 -13.3000 139.300 TC 20 1 118
1996042S13139 1996 10 SP EA DENNIS 1996-02-11 03:00:00 TS -13.3425 139.350 main 236 233 P___________P_ SH131996 -13.3425 139.350 22 -1 -13.3425 139.350 TC 22 1 137
1996042S13139 1996 10 SP EA DENNIS 1996-02-11 06:00:00 TS -13.4000 139.400 main 233 233 O___________O_ jtwc_sh SH131996 -13.4000 139.400 25 -1 -13.4000 139.400 TC 25 1 139
1996042S13139 1996 10 SP EA DENNIS 1996-02-11 09:00:00 TS -13.4500 139.450 main 223 220 P___________P_ SH131996 -13.4500 139.450 25 -1 -13.4500 139.450 TC 25 1 137
1996042S13139 1996 10 SP EA DENNIS 1996-02-11 12:00:00 TS -13.5000 139.500 main 220 220 O___________O_ jtwc_sh SH131996 -13.5000 139.500 25 -1 -13.5000 139.500 TC 25 1 135
1996042S13139 1996 10 SP EA DENNIS 1996-02-11 15:00:00 TS -13.5425 139.550 main 210 208 P___________P_ SH131996 -13.5425 139.550 25 -1 -13.5425 139.550 TC 25 1 137
1996042S13139 1996 10 SP EA DENNIS 1996-02-11 18:00:00 TS -13.6000 139.600 main 208 206 O___________O_ jtwc_sh SH131996 -13.6000 139.600 25 -1 -13.6000 139.600 TC 25 2 148
1996042S13139 1996 10 SP EA DENNIS 1996-02-11 21:00:00 TS -13.6925 139.650 main 195 194 P___________P_ SH131996 -13.6925 139.650 25 -1 -13.6925 139.650 TC 25 2 153
1996042S13139 1996 10 SP EA DENNIS 1996-02-12 00:00:00 TS -13.8000 139.700 main 194 194 O___________O_ jtwc_sh SH131996 -13.8000 139.700 25 -1 -13.8000 139.700 TC 25 2 156
1996042S13139 1996 10 SP EA DENNIS 1996-02-12 03:00:00 TS -13.9000 139.743 main 194 183 P___________P_ SH131996 -13.9000 139.743 25 -1 -13.9000 139.743 TC 25 2 153
1996042S13139 1996 10 SP EA DENNIS 1996-02-12 06:00:00 TS -14.0000 139.800 main 183 174 O___________O_ jtwc_sh SH131996 -14.0000 139.800 25 -1 -14.0000 139.800 TC 25 3 144
1996042S13139 1996 10 SP EA DENNIS 1996-02-12 09:00:00 TS -14.1150 139.900 main 174 165 P___________P_ SH131996 -14.1150 139.900 27 -1 -14.1150 139.900 TC 27 3 136
1996042S13139 1996 10 SP EA DENNIS 1996-02-12 12:00:00 TS -14.2000 140.000 main 165 154 O___________O_ jtwc_sh SH131996 -14.2000 140.000 30 -1 -14.2000 140.000 TC 30 2 127
1996042S13139 1996 10 SP EA DENNIS 1996-02-12 15:00:00 TS -14.2300 140.058 main 154 154 P___________P_ SH131996 -14.2300 140.058 30 -1 -14.2300 140.058 TC 30 1 90
1996042S13139 1996 10 SP EA DENNIS 1996-02-12 18:00:00 TS -14.2000 140.100 main 154 142 O___________O_ jtwc_sh SH131996 -14.2000 140.100 30 -1 -14.2000 140.100 TC 30 1 45
1996042S13139 1996 10 SP EA DENNIS 1996-02-12 21:00:00 TS -14.1300 140.165 main 142 140 P___________P_ SH131996 -14.1300 140.165 32 -1 -14.1300 140.165 TC 32 2 27
1996042S13139 1996 10 SP EA DENNIS 1996-02-13 00:00:00 TS -14.0000 140.200 25 1000 bom main 140 140 O_____O_____O_ jtwc_sh SH131996 -14.0000 140.200 35 0 -14.0000 140.200 20 25 1000 2.00000 -14.0000 140.200 TC 35 3 356
1996042S13139 1996 10 SP EA DENNIS 1996-02-13 03:00:00 TS -13.8045 140.162 main 140 140 P_____P_____P_ SH131996 -13.8075 140.165 35 0 -13.7925 140.152 20 25 999 -13.8075 140.165 TC 35 4 347
1996042S13139 1996 10 SP EA DENNIS 1996-02-13 06:00:00 TS -13.6000 140.100 25 998 bom main 154 154 O_____O_____O_ jtwc_sh SH131996 -13.6000 140.100 35 0 -13.6000 140.100 20 25 998 2.00000 -13.6000 140.100 TC 35 4 342
1996042S13139 1996 10 SP EA DENNIS 1996-02-13 09:00:00 TS -13.4350 140.043 main 171 171 P_____P_____P_ SH131996 -13.4350 140.043 35 0 -13.4350 140.043 20 25 998 -13.4350 140.043 TC 35 3 343
1996042S13139 1996 10 SP EA DENNIS 1996-02-13 12:00:00 TS -13.3000 140.000 25 998 bom main 174 174 O_____O_____O_ jtwc_sh SH131996 -13.3000 140.000 35 0 -13.3000 140.000 20 25 998 2.00000 -13.3000 140.000 TC 35 2 346
1996042S13139 1996 10 SP EA DENNIS 1996-02-13 15:00:00 TS -13.1925 139.993 main 174 173 P_____P_____P_ SH131996 -13.1925 139.993 35 0 -13.1925 139.993 20 27 997 -13.1925 139.993 TC 35 2 8
1996042S13139 1996 10 SP EA DENNIS 1996-02-13 18:00:00 TS -13.1000 140.000 30 996 bom main 173 173 O_____O_____O_ jtwc_sh SH131996 -13.1000 140.000 35 0 -13.1000 140.000 20 30 996 2.50000 -13.1000 140.000 TC 35 2 7
1996042S13139 1996 10 SP EA DENNIS 1996-02-13 21:00:00 TS -13.0000 140.000 main 173 173 P_____P_____P_ SH131996 -13.0000 140.000 35 0 -13.0000 140.000 20 32 995 -13.0000 140.000 TC 35 2 8
1996042S13139 1996 10 SP EA DENNIS 1996-02-14 00:00:00 TS -12.9000 140.000 35 994 bom main 173 173 O_____O_____O_ jtwc_sh SH131996 -12.9000 140.000 35 0 -12.9000 140.000 30 35 994 3.00000 -12.9000 140.000 TC 35 2 352
1996042S13139 1996 10 SP EA DENNIS 1996-02-14 03:00:00 TS -12.8000 139.992 main 174 174 P_____P_____P_ SH131996 -12.8000 139.992 35 0 -12.8000 139.992 30 35 994 -12.8000 139.992 TC 35 2 8
1996042S13139 1996 10 SP EA DENNIS 1996-02-14 06:00:00 TS -12.7000 140.000 35 994 bom main 174 173 O_____O_____O_ jtwc_sh SH131996 -12.7000 140.000 35 0 -12.7000 140.000 30 35 994 3.00000 -12.7000 140.000 TC 35 2 13
1996042S13139 1996 10 SP EA DENNIS 1996-02-14 09:00:00 TS -12.6000 140.038 main 173 162 P_____P_____P_ SH131996 -12.6000 140.035 35 0 -12.6000 140.043 30 35 994 -12.6000 140.035 TC 35 2 27
1996042S13139 1996 10 SP EA DENNIS 1996-02-14 12:00:00 TS -12.5000 140.100 35 994 bom main 163 153 O_____O_____O_ jtwc_sh SH131996 -12.5000 140.100 35 0 -12.5000 140.100 30 35 994 3.00000 -12.5000 140.100 TC 35 2 33
1996042S13139 1996 10 SP EA DENNIS 1996-02-14 15:00:00 TS -12.3950 140.173 main 153 145 P_____P_____P_ SH131996 -12.3925 140.185 35 0 -12.4000 140.150 30 32 995 -12.3925 140.185 TC 35 3 40
1996042S13139 1996 10 SP EA DENNIS 1996-02-14 18:00:00 TS -12.3000 140.267 30 996 bom main 145 145 O_____O_____O_ jtwc_sh SH131996 -12.3000 140.300 35 0 -12.3000 140.200 20 30 996 2.50000 -12.3000 140.300 TC 35 2 44
1996042S13139 1996 10 SP EA DENNIS 1996-02-14 21:00:00 TS -12.2232 140.338 main 148 127 P_____P_____P_ SH131996 -12.2425 140.420 32 -1 -12.1848 140.175 20 30 998 -12.2425 140.420 TC 32 3 59
1996042S13139 1996 10 SP EA DENNIS 1996-02-15 00:00:00 TS -12.1667 140.500 30 1001 bom main 127 98 O_____O_____O_ jtwc_sh SH131996 -12.2000 140.600 30 -1 -12.1000 140.300 20 30 1001 2.50000 106 -12.2000 140.600 TC 30 5 77
1996042S13139 1996 10 SP EA DENNIS 1996-02-15 03:00:00 TS -12.1134 140.838 main 98 55 P_____P_____P_ SH131996 -12.1350 140.863 32 -1 -12.0703 140.790 20 30 1000 133 -12.1350 140.863 TC 32 8 85
1996042S13139 1996 10 SP EA DENNIS 1996-02-15 06:00:00 TS -12.1000 141.267 30 1000 bom main 44 15 O_____O_____O_ jtwc_sh SH131996 -12.1000 141.200 35 0 -12.1000 141.400 20 30 1000 2.50000 160 -12.1000 141.200 TC 35 8 93
1996042S13139 1996 10 SP EA DENNIS 1996-02-15 09:00:00 TS -12.1490 141.651 main 10 0 P_____P_____P_ SH131996 -12.1273 141.555 35 0 -12.1922 141.842 20 30 999 179 -12.1273 141.555 TC 35 8 99
1996042S13139 1996 10 SP EA DENNIS 1996-02-15 12:00:00 TS -12.2333 142.100 30 998 bom main 0 0 O_____O_____O_ jtwc_sh SH131996 -12.2000 142.000 35 0 -12.3000 142.300 20 30 998 2.50000 199 -12.2000 142.000 TC 35 10 99
1996042S13139 1996 10 SP EA DENNIS 1996-02-15 15:00:00 TS -12.3041 142.653 main 0 0 P_____P_____P_ SH131996 -12.2774 142.548 35 0 -12.3574 142.863 20 35 997 220 -12.2774 142.548 TC 35 12 98
1996042S13139 1996 10 SP EA DENNIS 1996-02-15 18:00:00 TS -12.4000 143.300 40 996 bom main 10 10 O_____O_____O_ jtwc_sh SH131996 -12.4000 143.200 35 0 -12.4000 143.500 30 40 996 3.00000 241 -12.4000 143.200 TC 35 14 100
1996042S13139 1996 10 SP EA DENNIS 1996-02-15 21:00:00 TS -12.5350 144.018 main 66 66 P_____P_____P_ SH131996 -12.5925 143.935 37 0 -12.4199 144.185 30 40 995 233 -12.5925 143.935 TC 37 15 103
1996042S13139 1996 10 SP EA DENNIS 1996-02-16 00:00:00 TS -12.7231 144.746 40 995 bom main 132 132 O_____O_O___O_ jtwc_sh SH131996 -12.8000 144.700 40 0 -12.5000 144.900 30 40 995 3.00000 226 -13.0000 144.500 30 997 -12.8000 144.700 TC 40 14 105
1996042S13139 1996 10 SP EA DENNIS 1996-02-16 03:00:00 TS -12.9020 145.452 main 190 187 P_____P_P___P_ SH131996 -12.9573 145.408 42 0 -12.7349 145.607 30 40 995 193 -13.0151 145.315 35 993 -12.9573 145.408 TC 42 14 104
1996042S13139 1996 10 SP EA DENNIS 1996-02-16 06:00:00 TS -13.0733 146.173 40 995 bom main 226 226 O_____O_O___O_ jtwc_sh SH131996 -13.1000 146.100 45 0 -13.0000 146.300 30 40 995 3.00000 160 -13.1000 146.200 40 990 -13.1000 146.100 TC 45 15 103
1996042S13139 1996 10 SP EA DENNIS 1996-02-16 09:00:00 TS -13.2413 146.950 main 264 264 P_____P_P___P_ SH131996 -13.2575 146.822 45 0 -13.1575 146.988 30 40 992 198 -13.2929 147.167 40 990 -13.2575 146.822 TC 45 15 103
1996042S13139 1996 10 SP EA DENNIS 1996-02-16 12:00:00 TS -13.4000 147.650 40 990 bom main 314 305 O_____O_O___O_ jtwc_sh SH131996 -13.4000 147.500 45 0 -13.3000 147.600 30 40 990 3.00000 237 -13.5000 148.000 40 990 -13.4000 147.500 TC 45 12 104
1996042S13139 1996 10 SP EA DENNIS 1996-02-16 15:00:00 TS -13.5378 148.186 main 354 349 P_____P_P___P_ SH131996 -13.5148 148.095 45 0 -13.5072 148.073 30 37 990 252 -13.6144 148.483 40 990 -13.5148 148.095 TC 45 10 105
1996042S13139 1996 10 SP EA DENNIS 1996-02-16 18:00:00 TS -13.6500 148.625 35 990 bom main 364 360 O_____O_O___O_ jtwc_sh SH131996 -13.6000 148.600 45 0 -13.7000 148.500 30 35 990 3.00000 268 -13.7000 148.800 40 990 -13.6000 148.600 TC 45 9 103
1996042S13139 1996 10 SP EA DENNIS 1996-02-16 21:00:00 TS -13.7324 149.062 main 356 353 P_____P_P___P_ SH131996 -13.6573 149.030 45 0 -13.8151 149.030 30 35 990 254 -13.7999 149.158 40 990 -13.6573 149.030 TC 45 8 101
1996042S13139 1996 10 SP EA DENNIS 1996-02-17 00:00:00 TS -13.8000 149.450 35 990 bom main 355 351 O_____O_O___O_ jtwc_sh SH131996 -13.7000 149.400 45 0 -13.9000 149.500 30 35 990 3.00000 241 -13.9000 149.500 40 990 -13.7000 149.400 TC 45 7 101
1996042S13139 1996 10 SP EA DENNIS 1996-02-17 03:00:00 TS -13.8768 149.796 main 360 358 P_____P_P___P_ SH131996 -13.7499 149.765 42 0 -13.9998 149.788 30 35 990 200 -14.0075 149.865 40 990 -13.7499 149.765 TC 42 6 103
1996042S13139 1996 10 SP EA DENNIS 1996-02-17 06:00:00 TS -13.9500 150.100 35 990 bom main 358 369 O_____O_O___O_ jtwc_sh SH131996 -13.8000 150.100 40 0 -14.1000 150.000 21 35 990 2.50000 48 48 160 -14.1000 150.200 40 990 -13.8000 150.100 TC 40 6 103
1996042S13139 1996 10 SP EA DENNIS 1996-02-17 09:00:00 TS -14.0069 150.396 main 369 369 P_____P_P___P_ SH131996 -13.8500 150.415 40 0 -14.1925 150.258 21 35 992 48 48 187 -14.1350 150.495 40 990 -13.8500 150.415 TC 40 5 103
1996042S13139 1996 10 SP EA DENNIS 1996-02-17 12:00:00 TS -14.0750 150.650 35 995 bom main 382 382 O_____O_O___O_ jtwc_sh SH131996 -13.9000 150.700 40 0 -14.3000 150.500 21 35 995 2.50000 48 48 214 -14.2000 150.700 40 990 -13.9000 150.700 TC 40 5 110
1996042S13139 1996 10 SP EA DENNIS 1996-02-17 15:00:00 TS -14.1762 150.875 main 395 395 P_____P_P___P_ SH131996 -13.9500 150.973 37 0 -14.4275 150.745 21 35 995 48 48 214 -14.3774 150.810 40 990 -13.9500 150.973 TC 37 4 122
1996042S13139 1996 10 SP EA DENNIS 1996-02-17 18:00:00 TS -14.3000 151.025 35 995 bom main 408 408 O_____O_O___O_ jtwc_sh SH131996 -14.0000 151.200 35 0 -14.6000 150.900 21 35 995 2.50000 48 48 214 -14.6000 150.800 40 990 -14.0000 151.200 TC 35 3 146
1996042S13139 1996 10 SP EA DENNIS 1996-02-17 21:00:00 TS -14.4319 151.052 main 421 421 P_____P_P___P_ SH131996 -14.0499 151.358 32 -1 -14.8275 150.865 21 32 995 214 -14.8000 150.628 40 990 -14.0499 151.358 TC 32 3 164
1996042S13139 1996 10 SP EA DENNIS 1996-02-18 00:00:00 TS -14.5400 151.093 30 995 bom main 432 432 O_____O_O___O_ jtwc_sh SH131996 -14.1000 151.500 30 -1 -15.1000 150.800 20 30 995 2.50000 214 -15.0000 150.500 40 990 -14.1000 151.500 TC 30 3 131
1996042S13139 1996 10 SP EA DENNIS 1996-02-18 03:00:00 TS -14.6279 151.279 main 447 447 P_____P_P___P_ SH131996 -14.1350 151.700 30 -1 -15.3950 150.857 20 27 997 214 -15.2300 150.647 37 992 -14.1350 151.700 TC 30 4 109
1996042S13139 1996 10 SP EA DENNIS 1996-02-18 06:00:00 TS -14.6846 151.523 25 1000 bom main 463 463 O_____O_O___O_ jtwc_sh SH131996 -14.2000 151.900 30 -1 -15.7000 151.000 20 25 1000 2.00000 214 -15.4000 150.900 35 995 -14.2000 151.900 TC 30 5 99
1996042S13139 1996 10 SP EA DENNIS 1996-02-18 09:00:00 TS -14.7000 151.758 main 472 472 P_______P___P_ SH131996 -14.3275 152.080 27 -1 20 -15.4450 151.115 32 996 -14.3275 152.080 TC 27 4 98
1996042S13139 1996 10 SP EA DENNIS 1996-02-18 12:00:00 TS -14.7455 151.955 main 480 480 O_______O___O_ jtwc_sh SH131996 -14.5000 152.200 25 -1 -15.4000 151.300 30 997 -14.5000 152.200 TC 25 3 111
1996042S13139 1996 10 SP EA DENNIS 1996-02-18 15:00:00 TS -14.8220 152.086 main 494 494 P_______P___P_ SH131996 -14.7000 152.252 25 -1 -15.3100 151.420 30 997 -14.7000 152.252 TC 25 2 139
1996042S13139 1996 10 SP EA DENNIS 1996-02-18 18:00:00 TS -14.9333 152.122 main 504 504 O_______O___O_ jtwc_sh SH131996 -14.9000 152.200 25 -1 -15.2000 151.500 30 997 -14.9000 152.200 TC 25 2 190
1996042S13139 1996 10 SP EA DENNIS 1996-02-18 21:00:00 TS -15.0650 152.045 main 522 518 P___________P_ SH131996 -15.0650 152.045 25 -1 -15.0650 152.045 TC 25 4 229
1996042S13139 1996 10 SP EA DENNIS 1996-02-19 00:00:00 TS -15.2000 151.800 main 526 523 O___________O_ jtwc_sh SH131996 -15.2000 151.800 25 -1 -15.2000 151.800 TC 25 6 244
1996042S13139 1996 10 SP EA DENNIS 1996-02-19 03:00:00 TS -15.3150 151.522 main 528 526 P___________P_ SH131996 -15.3150 151.522 25 -1 -15.3150 151.522 TC 25 6 251
1996042S13139 1996 10 SP EA DENNIS 1996-02-19 06:00:00 TS -15.4000 151.200 main 533 530 O___________O_ jtwc_sh SH131996 -15.4000 151.200 25 -1 -15.4000 151.200 TC 25 7 256
1996042S13139 1996 10 SP EA DENNIS 1996-02-19 09:00:00 TS -15.4725 150.858 main 540 515 P___________P_ SH131996 -15.4725 150.858 25 -1 -15.4725 150.858 TC 25 7 262
1996042S13139 1996 10 SP EA DENNIS 1996-02-19 12:00:00 TS -15.5000 150.500 main 515 486 O___________O_ jtwc_sh SH131996 -15.5000 150.500 25 -1 -15.5000 150.500 TC 25 7 269
1996042S13139 1996 10 SP EA DENNIS 1996-02-19 15:00:00 TS -15.4799 150.150 main 486 453 P___________P_ SH131996 -15.4799 150.150 25 -1 -15.4799 150.150 TC 25 7 278
1996042S13139 1996 10 SP EA DENNIS 1996-02-19 18:00:00 TS -15.4000 149.800 main 453 429 O___________O_ jtwc_sh SH131996 -15.4000 149.800 25 -1 -15.4000 149.800 TC 25 7 288
1996042S13139 1996 10 SP EA DENNIS 1996-02-19 21:00:00 TS -15.2651 149.450 main 419 397 P___________P_ SH131996 -15.2651 149.450 22 -1 -15.2651 149.450 TC 22 7 294
1996042S13139 1996 10 SP EA DENNIS 1996-02-20 00:00:00 TS -15.1000 149.100 main 397 O___________O_ jtwc_sh SH131996 -15.1000 149.100 20 -1 -15.1000 149.100 TC 20 8 296

デジタル台風データ・検索

IBTrACS Databaseについて

本データベースは、米国NOAAが公開する1842年以降の世界の熱帯低気圧のベストトラックデータアーカイブInternational Best Track Archive for Climate Stewardship (IBTrACS)を、ウェブで閲覧しやすい形式に変換したものです。

最終更新日:2021-10-08